createdAt,value
2018-10-19T19:28:02.288Z,16.20
2018-10-19T19:30:30.213Z,16.40
2018-10-19T19:33:03.417Z,16.20
2018-10-19T19:35:31.091Z,16.20
2018-10-19T19:37:58.772Z,16.10
2018-10-19T19:40:26.537Z,16.20
2018-10-19T19:42:55.990Z,16.10
2018-10-19T19:45:24.552Z,16.10
2018-10-19T19:47:57.759Z,16.10
2018-10-19T19:50:25.299Z,16.30
2018-10-19T19:52:53.011Z,16.40
2018-10-19T19:55:20.681Z,16.30
2018-10-19T19:57:48.370Z,16.00
2018-10-19T20:00:16.018Z,16.10
2018-10-19T20:02:43.768Z,15.90
2018-10-19T20:05:11.553Z,16.10
2018-10-19T20:07:39.352Z,15.90
2018-10-19T20:10:07.102Z,16.20
2018-10-19T20:12:35.110Z,16.20
2018-10-19T20:15:02.827Z,15.90
2018-10-19T20:17:30.454Z,16.10
2018-10-19T20:19:58.664Z,16.00
2018-10-19T20:22:26.350Z,16.00
2018-10-19T20:24:54.185Z,16.10
2018-10-19T20:27:21.969Z,15.80
2018-10-19T20:29:49.651Z,15.70
2018-10-19T20:32:17.413Z,15.60
2018-10-19T20:34:45.939Z,15.70
2018-10-19T20:37:14.120Z,15.80
2018-10-19T20:39:42.008Z,15.80
2018-10-19T20:42:09.799Z,15.60
2018-10-19T20:44:37.603Z,15.60
2018-10-19T20:47:05.273Z,15.80
2018-10-19T20:49:32.960Z,15.60
2018-10-19T20:52:00.599Z,15.30
2018-10-19T20:54:28.175Z,15.80
2018-10-19T20:56:55.867Z,15.50
2018-10-19T20:59:23.611Z,15.40
2018-10-19T21:01:51.479Z,15.60
2018-10-19T21:04:19.122Z,15.20
2018-10-19T21:06:46.872Z,15.30
2018-10-19T21:09:14.644Z,15.40
2018-10-19T21:11:42.255Z,15.40
2018-10-19T21:14:09.959Z,15.30
2018-10-19T21:16:37.575Z,15.30
2018-10-19T21:19:05.489Z,15.10
2018-10-19T21:21:33.143Z,14.80
2018-10-19T21:24:00.845Z,15.00
2018-10-19T21:26:28.532Z,15.00
2018-10-19T21:28:56.260Z,15.00
2018-10-19T21:31:23.847Z,14.90
2018-10-19T21:33:51.466Z,14.90
2018-10-19T21:36:19.191Z,14.90
2018-10-19T21:38:46.839Z,15.00
2018-10-19T21:41:14.646Z,15.00
2018-10-19T21:43:42.156Z,15.00
2018-10-19T21:46:09.785Z,14.70
2018-10-19T21:48:37.451Z,14.80
2018-10-19T21:51:05.254Z,15.00
2018-10-19T21:53:32.971Z,14.80
2018-10-19T21:56:00.631Z,15.00
2018-10-19T21:58:28.187Z,14.80
2018-10-19T22:00:55.764Z,14.70
2018-10-19T22:03:23.380Z,14.80
2018-10-19T22:05:50.974Z,15.00
2018-10-19T22:08:18.620Z,14.80
2018-10-19T22:10:46.163Z,14.90
2018-10-19T22:13:13.789Z,15.00
2018-10-19T22:15:41.430Z,14.90
2018-10-19T22:18:09.072Z,14.80
2018-10-19T22:20:36.663Z,14.90
2018-10-19T22:23:04.421Z,14.50
2018-10-19T22:25:31.948Z,14.90
2018-10-19T22:27:59.615Z,14.90
2018-10-19T22:30:27.194Z,14.80
2018-10-19T22:32:54.806Z,14.60
2018-10-19T22:35:22.717Z,14.50
2018-10-19T22:37:50.635Z,14.80
2018-10-19T22:40:18.279Z,14.60
2018-10-19T22:42:45.908Z,14.50
2018-10-19T22:45:13.583Z,14.40
2018-10-19T22:47:41.175Z,14.60
2018-10-19T22:50:08.858Z,14.40
2018-10-19T22:52:36.483Z,14.80
2018-10-19T22:55:04.920Z,14.80
2018-10-19T22:57:32.590Z,14.20
2018-10-19T23:00:00.180Z,14.30
2018-10-19T23:02:27.762Z,14.40
2018-10-19T23:04:55.376Z,14.50
2018-10-19T23:07:22.986Z,14.10
2018-10-19T23:09:50.599Z,14.20
2018-10-19T23:12:18.204Z,14.10
2018-10-19T23:14:45.835Z,14.40
2018-10-19T23:17:13.570Z,14.60
2018-10-19T23:19:41.090Z,14.60
2018-10-19T23:22:08.653Z,14.30
2018-10-19T23:24:36.267Z,14.30
2018-10-19T23:27:04.255Z,14.10
2018-10-19T23:29:31.940Z,14.50
2018-10-19T23:31:59.616Z,14.10
2018-10-19T23:34:27.266Z,14.30
2018-10-19T23:36:54.982Z,14.20
2018-10-19T23:39:22.615Z,14.30
2018-10-19T23:41:50.238Z,14.40
2018-10-19T23:44:17.906Z,14.30
2018-10-19T23:46:45.507Z,14.50
2018-10-19T23:49:13.169Z,14.30
2018-10-19T23:51:40.770Z,14.40
2018-10-19T23:54:08.442Z,14.40
2018-10-19T23:56:36.063Z,14.50
2018-10-19T23:59:03.989Z,14.10
